Chickamauga Observed Data For Previous 48 Hours

Caption
Day and Hour Reservoir Elevation (behind dam)* Tailwater Elevation (below dam)* Average Hourly Discharge*
6/20/2018 2 AM EDT 682.25 633.39 13,279
6/20/2018 3 AM EDT 682.22 633.34 13,324
6/20/2018 4 AM EDT 682.32 633.45 13,357
6/20/2018 5 AM EDT 682.42 633.24 13,306
6/20/2018 6 AM EDT 682.49 633.14 13,499
6/20/2018 7 AM EDT 682.48 633.07 13,515
6/20/2018 8 AM EDT 682.42 632.99 13,503
6/20/2018 9 AM EDT 682.33 633.90 20,045
6/20/2018 10 AM EDT 682.30 633.98 20,334
6/20/2018 11 AM EDT 682.31 633.97 20,368
6/20/2018 12 PM EDT 682.24 634.78 29,133
6/20/2018 1 PM EDT 682.27 634.93 26,514
6/20/2018 2 PM EDT 682.27 634.91 26,599
6/20/2018 3 PM EDT 682.12 637.44 46,763
6/20/2018 4 PM EDT 681.96 637.68 47,047
6/20/2018 5 PM EDT 681.95 637.82 46,732
6/20/2018 6 PM EDT 681.95 637.96 46,869
6/20/2018 7 PM EDT 682.04 638.00 46,655
6/20/2018 8 PM EDT 682.31 635.96 26,923
6/20/2018 9 PM EDT 682.41 635.73 26,697
6/20/2018 10 PM EDT 682.39 635.55 26,677
6/20/2018 11 PM EDT 682.43 634.80 20,653
6/21/2018 12 AM EDT 682.36 634.72 20,483
6/21/2018 1 AM EDT 682.26 633.75 13,674
6/21/2018 2 AM EDT 682.20 633.57 13,534
6/21/2018 3 AM EDT 682.25 633.40 13,434
6/21/2018 4 AM EDT 682.29 633.39 13,342
6/21/2018 5 AM EDT 682.32 633.43 13,442
6/21/2018 6 AM EDT 682.36 633.29 13,503
6/21/2018 7 AM EDT 682.39 633.21 13,459
6/21/2018 8 AM EDT 682.36 633.12 13,446
6/21/2018 9 AM EDT 682.27 632.91 12,969
6/21/2018 10 AM EDT 682.26 633.17 13,947
6/21/2018 11 AM EDT 682.21 633.98 20,155
6/21/2018 12 PM EDT 682.00 635.53 27,044
6/21/2018 1 PM EDT 682.07 637.52 48,018
6/21/2018 2 PM EDT 682.04 637.70 47,798
6/21/2018 3 PM EDT 682.03 637.86 47,779
6/21/2018 4 PM EDT 682.09 637.99 47,624
6/21/2018 5 PM EDT 682.03 638.06 47,599
6/21/2018 6 PM EDT 681.96 638.15 47,563
6/21/2018 7 PM EDT 682.01 638.22 47,569
6/21/2018 8 PM EDT 682.07 638.30 47,436
6/21/2018 9 PM EDT 682.07 638.41 47,496
6/21/2018 10 PM EDT 682.31 636.44 27,114
6/21/2018 11 PM EDT 682.37 635.64 25,116
6/22/2018 12 AM EDT 682.23 635.35 20,553
6/22/2018 1 AM EDT 682.17 634.37 13,805

Elevations are in feet above sea level. Discharges are in cubic feet per second and are reported at the end of the hour.